createdAt,value
2022-10-14T00:01:09.572Z,9.85
2022-10-14T00:03:37.583Z,9.85
2022-10-14T00:06:10.087Z,9.82
2022-10-14T00:08:36.607Z,9.84
2022-10-14T00:11:06.607Z,9.79
2022-10-14T00:13:33.205Z,9.70
2022-10-14T00:16:00.591Z,9.64
2022-10-14T00:18:27.722Z,9.61
2022-10-14T00:21:02.395Z,9.56
2022-10-14T00:23:30.291Z,9.55
2022-10-14T00:25:56.713Z,9.62
2022-10-14T00:28:26.711Z,9.55
2022-10-14T00:30:55.577Z,9.48
2022-10-14T00:33:22.655Z,9.47
2022-10-14T00:35:59.836Z,9.44
2022-10-14T00:38:31.127Z,9.48
2022-10-14T00:40:57.906Z,9.47
2022-10-14T00:43:26.466Z,9.36
2022-10-14T00:45:53.091Z,9.28
2022-10-14T00:48:23.267Z,9.39
2022-10-14T00:50:53.559Z,9.51
2022-10-14T00:53:20.635Z,9.37
2022-10-14T00:55:49.358Z,9.26
2022-10-14T00:58:15.801Z,9.18
2022-10-14T01:00:42.351Z,9.21
2022-10-14T01:03:19.896Z,9.23
2022-10-14T01:05:59.929Z,9.20
2022-10-14T01:08:45.338Z,9.30
2022-10-14T01:12:28.235Z,9.24
2022-10-14T01:15:07.380Z,9.14
2022-10-14T01:18:05.269Z,9.20
2022-10-14T01:21:07.674Z,9.18
2022-10-14T01:24:02.552Z,9.26
2022-10-14T01:27:05.483Z,9.20
2022-10-14T01:29:54.861Z,9.15
2022-10-14T01:32:27.806Z,9.05
2022-10-14T01:35:18.388Z,8.95
2022-10-14T01:37:55.094Z,8.99
2022-10-14T01:40:27.707Z,9.03
2022-10-14T01:42:57.181Z,9.03
2022-10-14T01:45:24.034Z,8.94
2022-10-14T01:47:53.162Z,8.94
2022-10-14T01:50:23.771Z,8.88
2022-10-14T01:53:01.360Z,8.87
2022-10-14T01:55:33.093Z,8.70
2022-10-14T01:58:01.059Z,8.60
2022-10-14T02:00:28.167Z,8.54
2022-10-14T02:02:54.564Z,8.65
2022-10-14T02:05:41.233Z,8.79
2022-10-14T02:08:27.454Z,8.91
2022-10-14T02:11:06.985Z,8.72
2022-10-14T02:13:49.906Z,8.76
2022-10-14T02:16:25.870Z,8.78
2022-10-14T02:19:03.041Z,8.64
2022-10-14T02:21:46.359Z,8.73
2022-10-14T02:24:22.887Z,8.71
2022-10-14T02:26:52.719Z,8.67
2022-10-14T02:29:21.551Z,8.72
2022-10-14T02:31:49.384Z,8.60
2022-10-14T02:34:19.165Z,8.55
2022-10-14T02:36:46.460Z,8.69
2022-10-14T02:39:16.080Z,8.82
2022-10-14T02:41:42.760Z,8.90
2022-10-14T02:44:09.190Z,8.94
2022-10-14T02:46:38.679Z,8.85
2022-10-14T02:49:05.514Z,8.72
2022-10-14T02:51:31.903Z,8.79
2022-10-14T02:53:58.501Z,8.81
2022-10-14T02:56:26.490Z,8.86
2022-10-14T02:58:52.916Z,8.81
2022-10-14T03:01:20.115Z,8.76
2022-10-14T03:03:46.650Z,8.74
2022-10-14T03:06:13.261Z,8.72
2022-10-14T03:08:39.729Z,8.71
2022-10-14T03:11:06.999Z,8.70
2022-10-14T03:13:34.395Z,8.63
2022-10-14T03:16:00.957Z,8.62
2022-10-14T03:18:27.429Z,8.58
2022-10-14T03:20:59.091Z,8.49
2022-10-14T03:23:32.491Z,8.61
2022-10-14T03:25:58.947Z,8.56
2022-10-14T03:28:29.840Z,8.65
2022-10-14T03:31:10.867Z,8.68
2022-10-14T03:33:48.223Z,8.62
2022-10-14T03:36:17.921Z,8.58
2022-10-14T03:38:47.005Z,8.79
2022-10-14T03:41:34.454Z,8.70
2022-10-14T03:44:01.067Z,8.68
2022-10-14T03:46:27.868Z,8.66
2022-10-14T03:48:55.384Z,8.70
2022-10-14T03:51:22.649Z,8.84
2022-10-14T03:53:49.067Z,8.81
2022-10-14T03:56:23.526Z,8.74
2022-10-14T03:58:52.163Z,8.60
2022-10-14T04:01:19.107Z,8.60
2022-10-14T04:04:08.161Z,8.62
2022-10-14T04:06:35.678Z,8.69
2022-10-14T04:09:04.742Z,8.70
2022-10-14T04:11:36.001Z,8.73
2022-10-14T04:14:06.686Z,8.82
2022-10-14T04:16:38.906Z,8.71
2022-10-14T04:19:10.230Z,8.74
2022-10-14T04:21:36.626Z,8.79
2022-10-14T04:24:08.046Z,8.94
2022-10-14T04:26:43.098Z,8.87
2022-10-14T04:29:20.173Z,8.87
2022-10-14T04:31:55.045Z,8.92
2022-10-14T04:34:22.953Z,8.87
2022-10-14T04:36:49.500Z,8.92
2022-10-14T04:39:40.999Z,9.00
2022-10-14T04:42:07.412Z,8.99
2022-10-14T04:44:34.101Z,9.00
2022-10-14T04:47:02.020Z,8.98
2022-10-14T04:49:29.352Z,9.07
2022-10-14T04:52:08.574Z,9.08
2022-10-14T04:54:40.297Z,9.09
2022-10-14T04:57:06.692Z,9.10
2022-10-14T04:59:34.657Z,9.06
2022-10-14T05:02:13.142Z,9.14
2022-10-14T05:04:52.528Z,9.24
2022-10-14T05:07:18.935Z,9.23
2022-10-14T05:09:52.076Z,9.24
2022-10-14T05:12:26.036Z,9.36
2022-10-14T05:14:58.282Z,9.36
2022-10-14T05:17:36.305Z,9.31
2022-10-14T05:20:03.934Z,9.32
2022-10-14T05:22:30.815Z,9.39
2022-10-14T05:24:57.314Z,9.45
2022-10-14T05:27:24.768Z,9.46
2022-10-14T05:29:51.454Z,9.47
2022-10-14T05:32:17.987Z,9.58
2022-10-14T05:34:45.815Z,9.52
2022-10-14T05:37:23.659Z,9.49
2022-10-14T05:39:52.179Z,9.57
2022-10-14T05:42:22.935Z,9.46
2022-10-14T05:44:52.535Z,9.53
2022-10-14T05:47:19.017Z,9.47
2022-10-14T05:49:47.390Z,9.48
2022-10-14T05:53:21.939Z,9.56
2022-10-14T05:55:52.243Z,9.64
2022-10-14T05:58:21.160Z,9.76
2022-10-14T06:00:48.186Z,9.77
2022-10-14T06:03:18.028Z,9.82
2022-10-14T06:05:45.391Z,9.82
2022-10-14T06:08:11.904Z,9.84
2022-10-14T06:10:38.620Z,9.94
2022-10-14T06:13:05.166Z,9.93
2022-10-14T06:15:35.260Z,9.94
2022-10-14T06:18:01.767Z,9.95
2022-10-14T06:20:29.464Z,10.02
2022-10-14T06:22:55.850Z,10.10
2022-10-14T06:25:22.238Z,10.15
2022-10-14T06:27:48.623Z,10.24
2022-10-14T06:30:15.199Z,10.31
2022-10-14T06:32:41.643Z,10.34
2022-10-14T06:35:08.836Z,10.44
2022-10-14T06:37:35.229Z,10.48
2022-10-14T06:40:01.730Z,10.48
2022-10-14T06:42:28.106Z,10.58
2022-10-14T06:44:56.084Z,10.65
2022-10-14T06:47:22.539Z,10.62
2022-10-14T06:49:48.939Z,10.67
2022-10-14T06:52:15.339Z,10.72
2022-10-14T06:54:45.943Z,10.79
2022-10-14T06:57:14.701Z,10.80
2022-10-14T06:59:41.119Z,10.86
2022-10-14T07:02:07.716Z,10.90
2022-10-14T07:04:34.255Z,10.94
2022-10-14T07:07:00.809Z,11.02
2022-10-14T07:09:27.251Z,11.04
2022-10-14T07:11:53.764Z,11.12
2022-10-14T07:14:20.256Z,11.07
2022-10-14T07:16:47.031Z,11.13
2022-10-14T07:19:13.436Z,11.23
2022-10-14T07:21:39.908Z,11.31
2022-10-14T07:24:06.442Z,11.34
2022-10-14T07:26:33.138Z,11.37
2022-10-14T07:28:59.609Z,11.48
2022-10-14T07:31:26.380Z,11.53
2022-10-14T07:33:52.908Z,11.63
2022-10-14T07:36:22.338Z,11.66
2022-10-14T07:38:49.662Z,11.73
2022-10-14T07:41:19.178Z,11.84
2022-10-14T07:43:48.663Z,11.95
2022-10-14T07:46:16.772Z,12.03
2022-10-14T07:48:56.590Z,12.14
2022-10-14T07:51:23.418Z,12.18
2022-10-14T07:53:50.174Z,12.28
2022-10-14T07:56:16.588Z,12.35
2022-10-14T07:58:44.610Z,12.49
2022-10-14T08:01:11.306Z,12.56
2022-10-14T08:03:37.692Z,12.68
2022-10-14T08:06:05.018Z,12.83
2022-10-14T08:08:32.225Z,12.93
2022-10-14T08:11:07.392Z,13.11
2022-10-14T08:13:34.544Z,13.21
2022-10-14T08:16:02.190Z,13.34
2022-10-14T08:18:29.175Z,13.47
2022-10-14T08:20:55.633Z,13.59
2022-10-14T08:23:22.027Z,13.69
2022-10-14T08:25:49.119Z,13.78
2022-10-14T08:28:15.606Z,13.89
2022-10-14T08:30:42.300Z,13.96
2022-10-14T08:33:08.701Z,14.04
2022-10-14T08:35:35.110Z,14.07
2022-10-14T08:38:02.631Z,14.11
2022-10-14T08:40:30.871Z,14.23
2022-10-14T08:43:14.390Z,14.34
2022-10-14T08:45:50.063Z,14.44
2022-10-14T08:48:24.559Z,14.55
2022-10-14T08:51:03.097Z,14.55
2022-10-14T08:53:38.516Z,14.69
2022-10-14T08:56:05.746Z,14.77
2022-10-14T08:58:43.856Z,14.83
2022-10-14T09:01:27.611Z,14.95
2022-10-14T09:03:58.388Z,15.07
2022-10-14T09:06:27.684Z,15.12
2022-10-14T09:09:07.074Z,15.29
2022-10-14T09:11:39.828Z,15.46
2022-10-14T09:14:10.075Z,15.53
2022-10-14T09:16:40.071Z,15.51
2022-10-14T09:19:29.156Z,15.55
2022-10-14T09:21:55.627Z,15.69
2022-10-14T09:24:27.003Z,15.85
2022-10-14T09:27:24.025Z,15.89
2022-10-14T09:30:02.023Z,15.99
2022-10-14T09:32:36.173Z,16.09
2022-10-14T09:35:06.764Z,16.10
2022-10-14T09:37:37.115Z,16.23
2022-10-14T09:40:37.230Z,16.37
2022-10-14T09:43:09.651Z,16.48
2022-10-14T09:45:59.739Z,16.59
2022-10-14T09:48:32.337Z,16.57
2022-10-14T09:51:01.811Z,16.59
2022-10-14T09:53:37.004Z,16.55
2022-10-14T09:56:06.198Z,16.58
2022-10-14T09:58:42.495Z,16.57
2022-10-14T10:01:15.828Z,16.64
2022-10-14T10:03:42.553Z,16.73
2022-10-14T10:06:11.925Z,16.82
2022-10-14T10:08:42.156Z,16.84
2022-10-14T10:11:13.749Z,16.95
2022-10-14T10:13:45.361Z,17.04
2022-10-14T10:16:26.936Z,17.10
2022-10-14T10:18:55.704Z,16.96
2022-10-14T10:21:29.736Z,17.08
2022-10-14T10:24:02.255Z,17.09
2022-10-14T10:26:32.259Z,17.14
2022-10-14T10:29:02.445Z,17.15
2022-10-14T10:31:28.986Z,17.20
2022-10-14T10:34:16.270Z,17.16
2022-10-14T10:36:50.733Z,17.19
2022-10-14T10:39:28.008Z,17.23
2022-10-14T10:42:20.647Z,17.27
2022-10-14T10:45:01.068Z,17.35
2022-10-14T10:47:36.798Z,17.42
2022-10-14T10:50:10.027Z,17.48
2022-10-14T10:52:50.825Z,17.67
2022-10-14T10:55:20.012Z,17.73
2022-10-14T10:57:52.775Z,17.83
2022-10-14T11:00:22.661Z,17.92
2022-10-14T11:03:24.525Z,18.01
2022-10-14T11:05:59.689Z,18.20
2022-10-14T11:09:11.586Z,18.23
2022-10-14T11:12:03.120Z,18.21
2022-10-14T11:14:46.301Z,18.39
2022-10-14T11:17:51.928Z,18.54
2022-10-14T11:20:24.465Z,18.55
2022-10-14T11:23:09.500Z,18.58
2022-10-14T11:25:57.511Z,18.58
2022-10-14T11:28:53.381Z,18.59
2022-10-14T11:31:42.600Z,18.69
2022-10-14T11:34:20.274Z,18.71
2022-10-14T11:37:24.492Z,18.84
2022-10-14T11:40:15.263Z,19.00
2022-10-14T11:43:01.920Z,18.81
2022-10-14T11:45:35.838Z,18.74
2022-10-14T11:48:15.597Z,18.66
2022-10-14T11:50:49.387Z,18.65
2022-10-14T11:53:27.490Z,18.81
2022-10-14T11:56:04.864Z,18.76
2022-10-14T11:58:34.985Z,18.64
2022-10-14T12:01:06.848Z,18.63
2022-10-14T12:04:02.791Z,18.46
2022-10-14T12:06:41.966Z,18.46
2022-10-14T12:09:27.752Z,18.48
2022-10-14T12:11:59.165Z,18.55
2022-10-14T12:14:46.468Z,18.56
2022-10-14T12:17:22.689Z,18.59
2022-10-14T12:19:51.163Z,18.57
2022-10-14T12:22:26.951Z,18.63
2022-10-14T12:25:01.376Z,18.66
2022-10-14T12:27:28.642Z,18.64
2022-10-14T12:29:58.262Z,18.60
2022-10-14T12:32:30.707Z,18.57
2022-10-14T12:35:02.223Z,18.75
2022-10-14T12:37:35.238Z,18.83
2022-10-14T12:40:02.023Z,18.81
2022-10-14T12:42:30.625Z,18.98
2022-10-14T12:45:01.505Z,19.06
2022-10-14T12:47:30.913Z,18.77
2022-10-14T12:50:02.442Z,18.84
2022-10-14T12:52:35.781Z,19.04
2022-10-14T12:55:13.519Z,19.14
2022-10-14T12:57:42.237Z,19.20
2022-10-14T13:00:35.921Z,19.33
2022-10-14T13:03:04.371Z,19.32
2022-10-14T13:05:43.440Z,19.32
2022-10-14T13:08:20.634Z,19.24
2022-10-14T13:10:49.691Z,19.41
2022-10-14T13:13:38.129Z,19.35
2022-10-14T13:16:05.820Z,19.50
2022-10-14T13:18:38.273Z,19.33
2022-10-14T13:21:07.062Z,19.19
2022-10-14T13:23:46.215Z,19.43
2022-10-14T13:26:36.875Z,19.51
2022-10-14T13:29:26.862Z,19.56
2022-10-14T13:32:08.962Z,19.77
2022-10-14T13:34:41.162Z,19.83
2022-10-14T13:37:34.709Z,20.10
2022-10-14T13:40:17.671Z,19.98
2022-10-14T13:42:48.886Z,20.07
2022-10-14T13:45:17.113Z,20.04
2022-10-14T13:47:48.519Z,19.94
2022-10-14T13:50:22.444Z,19.89
2022-10-14T13:52:59.196Z,19.74
2022-10-14T13:55:27.073Z,19.66
2022-10-14T13:58:23.856Z,19.69
2022-10-14T14:00:59.232Z,19.71
2022-10-14T14:03:28.551Z,19.66
2022-10-14T14:05:55.982Z,19.64
2022-10-14T14:08:42.911Z,19.53
2022-10-14T14:11:18.735Z,19.55
2022-10-14T14:13:53.434Z,19.57
2022-10-14T14:16:26.009Z,19.64
2022-10-14T14:19:04.332Z,19.70
2022-10-14T14:21:34.061Z,19.66
2022-10-14T14:24:02.088Z,19.54
2022-10-14T14:26:38.687Z,19.34
2022-10-14T14:29:06.938Z,19.39
2022-10-14T14:32:01.474Z,19.41
2022-10-14T14:34:22.312Z,19.34
2022-10-14T14:36:53.193Z,19.27
2022-10-14T14:39:25.850Z,19.16
2022-10-14T14:41:53.984Z,19.21
2022-10-14T14:44:27.006Z,19.23
2022-10-14T14:47:03.624Z,19.25
2022-10-14T14:49:33.060Z,19.21
2022-10-14T14:52:01.872Z,19.23
2022-10-14T14:54:28.948Z,19.11
2022-10-14T14:57:04.641Z,19.17
2022-10-14T14:59:35.452Z,19.20
2022-10-14T15:02:02.981Z,18.97
2022-10-14T15:04:33.725Z,19.10
2022-10-14T15:07:21.321Z,19.07
2022-10-14T15:09:54.242Z,19.13
2022-10-14T15:12:23.808Z,19.08
2022-10-14T15:14:54.318Z,18.91
2022-10-14T15:17:27.769Z,18.88
2022-10-14T15:19:56.976Z,18.98
2022-10-14T15:22:36.923Z,18.98
2022-10-14T15:25:54.668Z,18.76
2022-10-14T15:28:32.228Z,18.63
2022-10-14T15:31:03.109Z,18.56
2022-10-14T15:33:32.127Z,18.52
2022-10-14T15:36:01.800Z,18.41
2022-10-14T15:38:29.323Z,18.47
2022-10-14T15:40:55.813Z,18.50
2022-10-14T15:43:27.132Z,18.53
2022-10-14T15:46:17.875Z,18.34
2022-10-14T15:48:50.287Z,18.24
2022-10-14T15:51:18.357Z,18.23
2022-10-14T15:53:44.778Z,18.03
2022-10-14T15:56:11.660Z,18.09
2022-10-14T15:58:38.225Z,17.95
2022-10-14T16:01:06.409Z,17.88
2022-10-14T16:03:36.027Z,17.88
2022-10-14T16:06:09.598Z,17.83
2022-10-14T16:08:38.387Z,17.69
2022-10-14T16:11:21.767Z,17.70
2022-10-14T16:13:48.165Z,17.59
2022-10-14T16:16:18.844Z,17.54
2022-10-14T16:18:45.272Z,17.43
2022-10-14T16:21:16.772Z,17.26
2022-10-14T16:23:43.787Z,17.27
2022-10-14T16:26:10.837Z,17.38
2022-10-14T16:28:37.609Z,17.23
2022-10-14T16:31:04.037Z,17.20
2022-10-14T16:33:30.472Z,17.18
2022-10-14T16:35:57.557Z,17.11
2022-10-14T16:38:24.298Z,16.94
2022-10-14T16:40:58.807Z,16.86
2022-10-14T16:43:25.895Z,16.89
2022-10-14T16:45:52.621Z,16.82
2022-10-14T16:48:19.486Z,16.74
2022-10-14T16:50:50.495Z,16.60
2022-10-14T16:53:35.665Z,16.62
2022-10-14T16:56:02.115Z,16.62
2022-10-14T16:58:28.917Z,16.54
2022-10-14T17:00:56.069Z,16.69
2022-10-14T17:03:22.465Z,16.75
2022-10-14T17:05:57.750Z,16.73
2022-10-14T17:08:24.134Z,16.75
2022-10-14T17:10:57.590Z,16.60
2022-10-14T17:13:23.999Z,16.36
2022-10-14T17:15:51.359Z,16.36
2022-10-14T17:18:18.028Z,16.37
2022-10-14T17:20:45.154Z,16.14
2022-10-14T17:23:11.536Z,16.20
2022-10-14T17:25:39.260Z,16.21
2022-10-14T17:28:05.670Z,16.22
2022-10-14T17:30:32.071Z,16.22
2022-10-14T17:32:58.464Z,16.27
2022-10-14T17:35:25.836Z,16.18
2022-10-14T17:37:52.949Z,16.26
2022-10-14T17:40:21.992Z,16.12
2022-10-14T17:42:49.452Z,16.19
2022-10-14T17:45:16.336Z,16.06
2022-10-14T17:47:42.706Z,16.07
2022-10-14T17:50:10.840Z,16.14
2022-10-14T17:52:37.292Z,16.13
2022-10-14T17:55:04.079Z,16.13
2022-10-14T17:57:30.723Z,16.12
2022-10-14T17:59:57.138Z,15.94
2022-10-14T18:02:23.605Z,15.84
2022-10-14T18:04:50.164Z,15.81
2022-10-14T18:07:18.749Z,15.67
2022-10-14T18:09:45.213Z,15.63
2022-10-14T18:12:11.608Z,15.72
2022-10-14T18:14:40.276Z,15.64
2022-10-14T18:17:06.818Z,15.68
2022-10-14T18:19:33.555Z,15.70
2022-10-14T18:22:00.054Z,15.74
2022-10-14T18:24:26.514Z,15.77
2022-10-14T18:26:53.312Z,15.77
2022-10-14T18:29:19.754Z,15.70
2022-10-14T18:31:46.298Z,15.66
2022-10-14T18:34:12.911Z,15.75
2022-10-14T18:36:39.793Z,15.68
2022-10-14T18:39:10.172Z,15.67
2022-10-14T18:41:39.805Z,15.54
2022-10-14T18:44:07.353Z,15.54
2022-10-14T18:46:37.005Z,15.48
2022-10-14T18:49:05.897Z,15.32
2022-10-14T18:51:35.244Z,15.40
2022-10-14T18:54:05.692Z,15.41
2022-10-14T18:56:35.198Z,15.39
2022-10-14T18:59:08.953Z,15.26
2022-10-14T19:01:36.911Z,15.34
2022-10-14T19:04:05.634Z,15.33
2022-10-14T19:06:32.891Z,15.21
2022-10-14T19:09:01.608Z,15.14
2022-10-14T19:11:28.885Z,15.15
2022-10-14T19:13:57.024Z,15.11
2022-10-14T19:16:28.864Z,15.07
2022-10-14T19:18:58.215Z,15.13
2022-10-14T19:21:29.738Z,15.21
2022-10-14T19:23:58.068Z,15.11
2022-10-14T19:26:27.164Z,15.14
2022-10-14T19:28:53.940Z,14.97
2022-10-14T19:31:24.758Z,15.15
2022-10-14T19:33:54.975Z,15.14
2022-10-14T19:36:23.918Z,14.99
2022-10-14T19:38:57.807Z,15.02
2022-10-14T19:41:26.418Z,15.05
2022-10-14T19:43:56.021Z,15.06
2022-10-14T19:46:23.754Z,15.17
2022-10-14T19:48:50.126Z,15.00
2022-10-14T19:51:18.136Z,14.93
2022-10-14T19:53:44.505Z,14.81
2022-10-14T19:56:13.323Z,14.99
2022-10-14T19:58:44.644Z,15.05
2022-10-14T20:01:14.228Z,14.97
2022-10-14T20:03:41.127Z,14.87
2022-10-14T20:06:08.382Z,14.93
2022-10-14T20:08:35.429Z,14.87
2022-10-14T20:11:08.438Z,14.79
2022-10-14T20:13:35.170Z,14.62
2022-10-14T20:16:02.482Z,14.81
2022-10-14T20:18:29.782Z,14.89
2022-10-14T20:20:56.840Z,14.85
2022-10-14T20:23:25.051Z,14.82
2022-10-14T20:25:51.758Z,14.83
2022-10-14T20:28:20.807Z,14.81
2022-10-14T20:30:47.288Z,14.86
2022-10-14T20:33:14.095Z,14.84
2022-10-14T20:35:40.572Z,14.78
2022-10-14T20:38:06.972Z,14.75
2022-10-14T20:40:35.279Z,14.64
2022-10-14T20:43:02.584Z,14.62
2022-10-14T20:45:28.980Z,14.64
2022-10-14T20:47:55.369Z,14.57
2022-10-14T20:50:22.416Z,14.65
2022-10-14T20:52:49.339Z,14.67
2022-10-14T20:55:15.850Z,14.65
2022-10-14T20:57:42.248Z,14.66
2022-10-14T21:00:09.847Z,14.69
2022-10-14T21:02:36.283Z,14.58
2022-10-14T21:05:02.833Z,14.65
2022-10-14T21:07:29.235Z,14.65
2022-10-14T21:09:55.633Z,14.68
2022-10-14T21:12:22.169Z,14.72
2022-10-14T21:14:48.824Z,14.68
2022-10-14T21:17:15.242Z,14.70
2022-10-14T21:19:41.657Z,14.76
2022-10-14T21:22:09.571Z,14.85
2022-10-14T21:24:36.264Z,14.86
2022-10-14T21:27:02.761Z,14.90
2022-10-14T21:29:29.159Z,14.93
2022-10-14T21:31:55.565Z,14.92
2022-10-14T21:34:24.704Z,14.89
2022-10-14T21:36:51.163Z,14.99
2022-10-14T21:39:18.356Z,15.03
2022-10-14T21:41:45.554Z,14.95
2022-10-14T21:44:17.311Z,14.79
2022-10-14T21:46:43.708Z,14.82
2022-10-14T21:49:10.964Z,14.71
2022-10-14T21:51:37.694Z,14.61
2022-10-14T21:54:04.825Z,14.74
2022-10-14T21:56:31.460Z,14.85
2022-10-14T21:58:58.367Z,14.78
2022-10-14T22:01:29.550Z,14.64
2022-10-14T22:03:59.157Z,14.78
2022-10-14T22:06:26.395Z,14.83
2022-10-14T22:08:55.480Z,14.85
2022-10-14T22:11:23.604Z,14.87
2022-10-14T22:13:51.164Z,14.85
2022-10-14T22:16:17.869Z,14.76
2022-10-14T22:18:46.733Z,14.78
2022-10-14T22:21:15.428Z,14.79
2022-10-14T22:23:42.125Z,14.77
2022-10-14T22:26:11.991Z,14.78
2022-10-14T22:28:38.862Z,14.74
2022-10-14T22:31:15.154Z,14.65
2022-10-14T22:33:42.488Z,14.66
2022-10-14T22:36:10.530Z,14.73
2022-10-14T22:38:38.293Z,14.74
2022-10-14T22:41:06.275Z,14.77
2022-10-14T22:43:33.987Z,14.84
2022-10-14T22:46:02.685Z,14.86
2022-10-14T22:48:30.024Z,14.88
2022-10-14T22:50:57.283Z,14.81
2022-10-14T22:53:24.076Z,14.79
2022-10-14T22:55:51.932Z,14.70
2022-10-14T22:58:18.309Z,14.79
2022-10-14T23:00:44.698Z,14.73
2022-10-14T23:03:11.150Z,14.75
2022-10-14T23:05:37.624Z,14.77
2022-10-14T23:08:09.752Z,14.74
2022-10-14T23:10:39.317Z,14.81
2022-10-14T23:13:06.696Z,14.76
2022-10-14T23:15:33.555Z,14.73
2022-10-14T23:18:00.214Z,14.77
2022-10-14T23:20:27.578Z,14.76
2022-10-14T23:22:53.974Z,14.77
2022-10-14T23:25:20.532Z,14.83
2022-10-14T23:27:47.075Z,14.87
2022-10-14T23:30:13.484Z,14.82
2022-10-14T23:32:40.059Z,14.82
2022-10-14T23:35:06.786Z,14.72
2022-10-14T23:37:33.377Z,14.73
2022-10-14T23:40:01.632Z,14.84
2022-10-14T23:42:28.027Z,14.87
2022-10-14T23:44:54.419Z,14.81
2022-10-14T23:47:21.181Z,14.85
2022-10-14T23:49:47.847Z,14.83
2022-10-14T23:52:14.264Z,14.86
2022-10-14T23:54:40.687Z,14.78
2022-10-14T23:57:07.096Z,14.83
2022-10-14T23:59:33.556Z,14.84
